Time;durP1;ratioP1;P1;durP2;ratioP2;P2;SDS_P1;SDS_P2;PMS_P1;PMS_P2;Temp;Humidity;BMP_temperature;BMP_pressure;BME280_temperature;BME280_humidity;BME280_pressure;Samples;Min_cycle;Max_cycle;Signal;HPM_P1;HPM_P2
2023/02/04 00:00:47;;;;;;;1.30;0.70;;;20.30;51.10;;;;;;5021233;28;20422;-65
2023/02/04 00:03:15;;;;;;;1.15;0.50;;;20.30;51.50;;;;;;5018700;28;20037;-65
2023/02/04 00:05:41;;;;;;;0.80;0.50;;;20.30;51.00;;;;;;5020827;28;20392;-65
2023/02/04 00:08:07;;;;;;;1.08;0.70;;;20.30;51.00;;;;;;5018996;28;20033;-65
2023/02/04 00:10:33;;;;;;;1.00;0.50;;;20.30;51.00;;;;;;5020099;28;20033;-65
2023/02/04 00:12:59;;;;;;;1.38;0.60;;;20.30;51.00;;;;;;5018585;28;20057;-65
2023/02/04 00:15:25;;;;;;;0.52;0.40;;;20.30;51.00;;;;;;5018153;28;20072;-65
2023/02/04 00:17:50;;;;;;;0.85;0.50;;;20.30;51.00;;;;;;5016466;28;20026;-65
2023/02/04 00:20:18;;;;;;;1.48;0.60;;;20.30;51.00;;;;;;5020082;28;20097;-65
2023/02/04 00:22:44;;;;;;;0.60;0.50;;;20.20;50.90;;;;;;5019082;28;20040;-65
2023/02/04 00:25:10;;;;;;;0.93;0.60;;;20.30;50.90;;;;;;5019338;28;20025;-65
2023/02/04 00:27:35;;;;;;;1.35;0.60;;;20.20;50.90;;;;;;5018889;28;20033;-65
2023/02/04 00:30:02;;;;;;;1.02;0.50;;;20.20;50.90;;;;;;5019196;28;20220;-65
2023/02/04 00:32:28;;;;;;;0.95;0.50;;;20.20;50.90;;;;;;5020179;28;20469;-65
2023/02/04 00:34:53;;;;;;;1.00;0.50;;;20.20;50.90;;;;;;5021835;28;20022;-66
2023/02/04 00:37:19;;;;;;;1.80;0.70;;;20.20;50.80;;;;;;5019248;28;20024;-65
2023/02/04 00:39:45;;;;;;;1.00;0.60;;;20.20;51.40;;;;;;5017898;28;20022;-66
2023/02/04 00:42:10;;;;;;;1.30;0.60;;;20.20;50.80;;;;;;5022986;28;20041;-65
2023/02/04 00:44:36;;;;;;;1.27;0.50;;;20.20;51.40;;;;;;5016275;28;20037;-65
2023/02/04 00:47:02;;;;;;;1.27;0.50;;;20.20;50.90;;;;;;5019842;28;20037;-65
2023/02/04 00:49:28;;;;;;;0.90;0.60;;;20.20;50.80;;;;;;5017226;28;20396;-66
2023/02/04 00:51:53;;;;;;;0.85;0.50;;;20.10;50.80;;;;;;5019961;28;20022;-66
2023/02/04 00:54:19;;;;;;;0.93;0.40;;;20.20;50.80;;;;;;5021128;28;20465;-65
2023/02/04 00:56:45;;;;;;;0.95;0.60;;;20.20;50.80;;;;;;5021396;28;20028;-65
2023/02/04 00:59:10;;;;;;;0.82;0.50;;;20.10;50.80;;;;;;5017719;28;20030;-65
2023/02/04 01:01:36;;;;;;;0.73;0.50;;;20.10;50.80;;;;;;5020548;28;20032;-65
2023/02/04 01:04:02;;;;;;;0.95;0.55;;;20.10;50.80;;;;;;5018184;28;20022;-64
2023/02/04 01:06:27;;;;;;;1.08;0.52;;;20.10;50.80;;;;;;5017786;28;20436;-64
2023/02/04 01:08:53;;;;;;;0.77;0.50;;;20.10;50.80;;;;;;5018205;28;20512;-66
2023/02/04 01:11:19;;;;;;;1.00;0.60;;;20.10;50.80;;;;;;5018410;28;20037;-64
2023/02/04 01:13:45;;;;;;;0.85;0.50;;;20.10;50.80;;;;;;5020438;28;20036;-64
2023/02/04 01:16:11;;;;;;;1.58;0.70;;;20.10;50.80;;;;;;5018713;28;20042;-64
2023/02/04 01:18:37;;;;;;;1.02;0.55;;;20.10;50.80;;;;;;5018177;28;20473;-64
2023/02/04 01:21:03;;;;;;;1.13;0.57;;;20.10;50.80;;;;;;5020933;28;20033;-64
2023/02/04 01:23:28;;;;;;;0.50;0.30;;;20.10;50.70;;;;;;5016313;28;20117;-64
2023/02/04 01:25:54;;;;;;;0.50;0.50;;;20.10;50.80;;;;;;5020655;28;20171;-65
2023/02/04 01:28:20;;;;;;;1.00;0.50;;;20.10;50.80;;;;;;5017948;28;20022;-64
2023/02/04 01:30:45;;;;;;;0.73;0.50;;;20.10;50.80;;;;;;5016808;28;20113;-64
2023/02/04 01:33:11;;;;;;;1.02;0.50;;;20.10;50.80;;;;;;5022528;28;20084;-65
2023/02/04 01:35:36;;;;;;;0.57;0.50;;;20.10;50.80;;;;;;5018363;28;20026;-64
2023/02/04 01:38:02;;;;;;;0.75;0.40;;;20.10;50.80;;;;;;5016075;28;20530;-64
2023/02/04 01:40:28;;;;;;;1.40;0.60;;;20.00;50.80;;;;;;5017258;28;20110;-64
2023/02/04 01:42:53;;;;;;;0.80;0.60;;;20.00;50.80;;;;;;5019102;28;20029;-66
2023/02/04 01:45:19;;;;;;;1.52;0.75;;;20.10;50.80;;;;;;5015161;28;20029;-66
2023/02/04 01:47:45;;;;;;;0.90;0.50;;;20.00;50.80;;;;;;5017107;28;20099;-64
2023/02/04 01:50:16;;;;;;;0.77;0.50;;;20.00;50.80;;;;;;5018344;28;20049;-65
2023/02/04 01:52:43;;;;;;;1.38;0.68;;;20.00;50.80;;;;;;5017950;28;20120;-64
2023/02/04 01:55:23;;;;;;;0.77;0.50;;;20.00;51.30;;;;;;5021458;28;20037;-65
2023/02/04 01:57:51;;;;;;;0.93;0.57;;;20.00;50.80;;;;;;5020146;28;20477;-64
2023/02/04 02:00:24;;;;;;;0.95;0.57;;;20.00;51.40;;;;;;5017817;28;20040;-65
2023/02/04 02:02:51;;;;;;;0.85;0.50;;;20.00;50.80;;;;;;5021363;28;20228;-65
2023/02/04 02:05:25;;;;;;;1.38;0.60;;;20.00;50.80;;;;;;5021326;28;20109;-64
2023/02/04 02:07:54;;;;;;;0.77;0.50;;;19.90;50.80;;;;;;5018437;28;20034;-64
2023/02/04 02:10:21;;;;;;;1.33;0.55;;;20.00;50.80;;;;;;5018494;28;20029;-65
2023/02/04 02:12:48;;;;;;;1.15;0.50;;;20.00;50.80;;;;;;5019451;28;20041;-65
2023/02/04 02:15:15;;;;;;;0.63;0.50;;;19.90;50.80;;;;;;5018809;28;20057;-65
2023/02/04 02:17:41;;;;;;;1.50;0.68;;;19.90;50.80;;;;;;5015194;28;20458;-66
2023/02/04 02:20:10;;;;;;;0.82;0.50;;;19.90;50.80;;;;;;5017290;28;20033;-66
2023/02/04 02:23:10;;;;;;;1.52;0.60;;;19.90;50.80;;;;;;5016034;28;20114;-65
2023/02/04 02:25:36;;;;;;;1.08;0.50;;;19.90;50.90;;;;;;5021300;28;20030;-64
2023/02/04 02:28:03;;;;;;;0.52;0.43;;;19.90;50.80;;;;;;5022888;28;20036;-65
2023/02/04 02:30:29;;;;;;;0.40;0.40;;;19.90;50.90;;;;;;5023019;28;20058;-65
2023/02/04 02:32:55;;;;;;;1.13;0.50;;;19.90;50.90;;;;;;5024475;28;20026;-65
2023/02/04 02:35:21;;;;;;;0.90;0.40;;;19.90;50.90;;;;;;5024845;28;20060;-65
2023/02/04 02:37:46;;;;;;;0.40;0.30;;;19.90;50.90;;;;;;5020648;28;20021;-65
2023/02/04 02:40:13;;;;;;;1.05;0.50;;;19.90;50.90;;;;;;5021253;28;20072;-65
2023/02/04 02:42:39;;;;;;;0.82;0.43;;;19.90;50.90;;;;;;5018866;28;20132;-65
2023/02/04 02:45:12;;;;;;;0.95;0.40;;;19.90;50.90;;;;;;5022391;28;20107;-65
2023/02/04 02:47:38;;;;;;;0.88;0.50;;;19.90;50.90;;;;;;5020633;28;20041;-65
2023/02/04 02:50:04;;;;;;;0.70;0.50;;;19.90;50.90;;;;;;5020911;28;20039;-66
2023/02/04 02:52:29;;;;;;;1.38;0.60;;;19.90;50.90;;;;;;5022180;28;20034;-65
2023/02/04 02:54:55;;;;;;;0.63;0.43;;;19.80;50.90;;;;;;5021495;28;20430;-65
2023/02/04 02:57:22;;;;;;;0.65;0.40;;;19.80;50.90;;;;;;5021367;28;20032;-65
2023/02/04 02:59:48;;;;;;;0.50;0.50;;;19.80;50.90;;;;;;5016982;28;20038;-64
2023/02/04 03:02:21;;;;;;;0.57;0.40;;;19.80;50.90;;;;;;5019993;28;20030;-65
2023/02/04 03:04:56;;;;;;;1.27;0.73;;;19.80;50.90;;;;;;5020239;28;20071;-65
2023/02/04 03:07:22;;;;;;;0.43;0.40;;;19.90;51.00;;;;;;5021130;28;20040;-64
2023/02/04 03:09:49;;;;;;;0.82;0.47;;;19.80;51.00;;;;;;5023059;28;20117;-65
2023/02/04 03:12:15;;;;;;;0.40;0.35;;;19.80;51.00;;;;;;5021710;28;20427;-65
2023/02/04 03:14:41;;;;;;;0.80;0.40;;;19.80;51.50;;;;;;5021270;28;20026;-65
2023/02/04 03:17:08;;;;;;;1.25;0.60;;;19.80;50.90;;;;;;5020295;28;20054;-65
2023/02/04 03:19:35;;;;;;;0.77;0.50;;;19.80;50.90;;;;;;5018538;28;20116;-64
2023/02/04 03:22:02;;;;;;;0.85;0.50;;;19.80;51.00;;;;;;5018726;28;20414;-64
2023/02/04 03:24:28;;;;;;;0.40;0.40;;;19.80;51.00;;;;;;5017369;28;20315;-65
2023/02/04 03:26:54;;;;;;;0.50;0.40;;;19.80;51.00;;;;;;5023328;28;20026;-65
2023/02/04 03:29:20;;;;;;;0.45;0.43;;;19.80;51.00;;;;;;5022263;28;20025;-65
2023/02/04 03:31:45;;;;;;;0.70;0.43;;;19.80;51.00;;;;;;5033300;28;20071;-64
2023/02/04 03:34:11;;;;;;;0.85;0.30;;;19.80;51.00;;;;;;5019840;28;20049;-65
2023/02/04 03:36:37;;;;;;;0.57;0.50;;;19.80;51.00;;;;;;5035841;28;20030;-65
2023/02/04 03:39:03;;;;;;;0.70;0.52;;;19.80;51.00;;;;;;5023201;28;20029;-65
2023/02/04 03:41:29;;;;;;;1.27;0.52;;;19.70;50.90;;;;;;5023037;28;20393;-65
2023/02/04 03:43:55;;;;;;;0.52;0.40;;;19.80;51.00;;;;;;5020677;28;20033;-65
2023/02/04 03:46:22;;;;;;;0.35;0.30;;;19.80;51.00;;;;;;5021061;28;20033;-65
2023/02/04 03:48:48;;;;;;;1.10;0.52;;;19.70;51.00;;;;;;5021657;28;20053;-65
2023/02/04 03:51:14;;;;;;;0.85;0.52;;;19.70;51.00;;;;;;5021179;28;20076;-64
2023/02/04 03:53:39;;;;;;;0.90;0.50;;;19.70;51.00;;;;;;5020398;28;20063;-65
2023/02/04 03:56:05;;;;;;;0.60;0.43;;;19.70;51.00;;;;;;5021420;28;20400;-65
2023/02/04 03:58:31;;;;;;;0.73;0.50;;;19.70;51.00;;;;;;5018985;28;20033;-65
2023/02/04 04:00:57;;;;;;;1.15;0.40;;;19.70;51.00;;;;;;5019959;28;20105;-65
2023/02/04 04:03:22;;;;;;;0.77;0.40;;;19.70;51.00;;;;;;5016719;28;20041;-65
2023/02/04 04:05:48;;;;;;;0.50;0.50;;;19.70;51.10;;;;;;5020006;28;20101;-65
2023/02/04 04:08:14;;;;;;;1.55;0.57;;;19.70;51.00;;;;;;5019489;28;20113;-65
2023/02/04 04:10:39;;;;;;;0.88;0.40;;;19.70;51.00;;;;;;5022107;28;20130;-65
2023/02/04 04:13:05;;;;;;;1.00;0.50;;;19.70;51.00;;;;;;5017714;28;20465;-65
2023/02/04 04:15:31;;;;;;;1.23;0.52;;;19.70;51.00;;;;;;5021336;28;20040;-64
2023/02/04 04:17:57;;;;;;;0.88;0.40;;;19.70;51.00;;;;;;5019091;28;20026;-66
2023/02/04 04:20:24;;;;;;;1.20;0.60;;;19.70;51.10;;;;;;5019802;28;20365;-64
2023/02/04 04:22:50;;;;;;;0.63;0.50;;;19.70;51.10;;;;;;5017522;28;20029;-65
2023/02/04 04:25:16;;;;;;;0.38;0.38;;;19.70;51.10;;;;;;5019818;28;20038;-65
2023/02/04 04:27:42;;;;;;;0.77;0.43;;;19.70;51.10;;;;;;5020980;28;20056;-64
2023/02/04 04:30:08;;;;;;;0.52;0.40;;;19.70;51.10;;;;;;5015920;28;20478;-65
2023/02/04 04:32:35;;;;;;;0.73;0.50;;;19.60;51.00;;;;;;5018854;28;20504;-65
2023/02/04 04:35:01;;;;;;;0.47;0.40;;;19.70;51.10;;;;;;5019033;28;20029;-65
2023/02/04 04:37:26;;;;;;;0.70;0.50;;;19.60;51.00;;;;;;5016238;28;20105;-65
2023/02/04 04:39:52;;;;;;;0.82;0.32;;;19.60;51.00;;;;;;5015954;28;20025;-65
2023/02/04 04:42:18;;;;;;;0.60;0.40;;;19.60;51.10;;;;;;5018962;28;20532;-65
2023/02/04 04:44:43;;;;;;;0.82;0.50;;;19.70;51.10;;;;;;5019669;28;20461;-65
2023/02/04 04:47:09;;;;;;;0.85;0.55;;;19.60;51.10;;;;;;5021302;28;20041;-65
2023/02/04 04:49:34;;;;;;;1.02;0.50;;;19.60;51.10;;;;;;5021084;28;20068;-65
2023/02/04 04:52:00;;;;;;;0.50;0.50;;;19.60;51.10;;;;;;5035308;28;20496;-65
2023/02/04 04:54:26;;;;;;;0.70;0.40;;;19.60;51.10;;;;;;5022742;28;20030;-65
2023/02/04 04:56:51;;;;;;;0.55;0.40;;;19.60;51.10;;;;;;5018698;28;20520;-65
2023/02/04 04:59:17;;;;;;;0.82;0.60;;;19.70;51.10;;;;;;5021258;28;20025;-65
2023/02/04 05:01:42;;;;;;;0.60;0.50;;;19.60;51.10;;;;;;5018234;28;20061;-65
2023/02/04 05:04:08;;;;;;;0.40;0.40;;;19.60;51.60;;;;;;5018739;28;20025;-64
2023/02/04 05:06:33;;;;;;;0.43;0.38;;;19.60;51.70;;;;;;5019377;28;20488;-64
2023/02/04 05:08:59;;;;;;;0.82;0.40;;;19.60;51.20;;;;;;5019025;28;20515;-64
2023/02/04 05:11:25;;;;;;;0.65;0.50;;;19.60;51.20;;;;;;5015587;28;20029;-65
2023/02/04 05:13:50;;;;;;;0.90;0.40;;;19.60;51.20;;;;;;5019805;28;20108;-65
2023/02/04 05:16:17;;;;;;;0.90;0.50;;;19.60;51.20;;;;;;5017689;28;20029;-65
2023/02/04 05:18:43;;;;;;;0.73;0.40;;;19.60;51.20;;;;;;5019746;28;20026;-65
2023/02/04 05:21:08;;;;;;;0.50;0.40;;;19.60;51.20;;;;;;5019487;28;20038;-65
2023/02/04 05:23:34;;;;;;;0.65;0.40;;;19.60;51.20;;;;;;5016449;28;20026;-66
2023/02/04 05:26:00;;;;;;;0.45;0.40;;;19.60;51.20;;;;;;5018858;28;20029;-64
2023/02/04 05:28:25;;;;;;;0.60;0.50;;;19.60;51.20;;;;;;5015657;28;20034;-64
2023/02/04 05:30:51;;;;;;;0.57;0.40;;;19.60;51.30;;;;;;5017536;28;20552;-64
2023/02/04 05:33:17;;;;;;;0.43;0.40;;;19.60;51.30;;;;;;5020035;28;20361;-65
2023/02/04 05:35:42;;;;;;;0.57;0.50;;;19.50;51.20;;;;;;5020082;28;20495;-65
2023/02/04 05:38:08;;;;;;;0.70;0.50;;;19.50;51.20;;;;;;5023404;28;20065;-65
2023/02/04 05:40:34;;;;;;;0.88;0.50;;;19.50;51.30;;;;;;5020543;28;20492;-64
2023/02/04 05:43:00;;;;;;;1.33;0.60;;;19.50;51.30;;;;;;5020518;28;20400;-65
2023/02/04 05:45:25;;;;;;;0.95;0.50;;;19.60;51.40;;;;;;5019944;28;20065;-65
2023/02/04 05:47:51;;;;;;;1.45;0.70;;;19.50;51.40;;;;;;5020883;28;20493;-65
2023/02/04 05:50:17;;;;;;;0.75;0.50;;;19.50;51.40;;;;;;5019759;28;20030;-65
2023/02/04 05:52:43;;;;;;;0.85;0.60;;;19.50;51.40;;;;;;5016786;28;20030;-66
2023/02/04 05:55:11;;;;;;;0.93;0.60;;;19.50;51.40;;;;;;5018883;28;20053;-65
2023/02/04 05:57:38;;;;;;;0.88;0.55;;;19.50;51.50;;;;;;5018542;28;20029;-65
2023/02/04 06:00:05;;;;;;;2.60;0.75;;;19.50;51.50;;;;;;5021457;28;20060;-65
2023/02/04 06:02:30;;;;;;;0.70;0.50;;;19.50;51.60;;;;;;5022183;28;20032;-65
2023/02/04 06:04:56;;;;;;;0.80;0.40;;;19.50;51.60;;;;;;5022600;28;20029;-65
2023/02/04 06:07:22;;;;;;;0.90;0.60;;;19.50;51.60;;;;;;5023246;28;20053;-66
2023/02/04 06:09:47;;;;;;;1.05;0.50;;;19.50;51.60;;;;;;5024534;28;20076;-65
2023/02/04 06:12:13;;;;;;;1.08;0.47;;;19.50;51.60;;;;;;5019323;28;20064;-65
2023/02/04 06:14:38;;;;;;;0.57;0.40;;;19.40;51.60;;;;;;5021029;28;20453;-65
2023/02/04 06:17:04;;;;;;;1.13;0.60;;;19.50;51.60;;;;;;5017795;28;20048;-65
2023/02/04 06:19:30;;;;;;;1.00;0.63;;;19.50;51.60;;;;;;5023722;28;20022;-65
2023/02/04 06:21:55;;;;;;;1.48;0.68;;;19.50;51.60;;;;;;5019248;28;20022;-65
2023/02/04 06:24:21;;;;;;;1.75;0.50;;;19.50;51.50;;;;;;5024015;28;20053;-65
2023/02/04 06:26:46;;;;;;;0.35;0.32;;;19.50;51.60;;;;;;5021570;28;20030;-65
2023/02/04 06:29:12;;;;;;;1.48;0.60;;;19.50;51.60;;;;;;5038112;28;20133;-65
2023/02/04 06:31:37;;;;;;;0.60;0.43;;;19.50;51.60;;;;;;5020108;28;20069;-65
2023/02/04 06:34:04;;;;;;;0.40;0.40;;;19.50;51.60;;;;;;5023444;28;20484;-64
2023/02/04 06:36:30;;;;;;;1.35;0.60;;;19.50;51.60;;;;;;5036509;28;20498;-65
2023/02/04 06:38:56;;;;;;;1.23;0.50;;;19.50;51.60;;;;;;5021592;28;20018;-65
2023/02/04 06:41:22;;;;;;;1.40;0.60;;;19.50;51.60;;;;;;5020531;28;20112;-65
2023/02/04 06:43:48;;;;;;;0.98;0.40;;;19.50;51.60;;;;;;5021439;28;20116;-64
2023/02/04 06:46:13;;;;;;;1.40;0.60;;;19.50;51.60;;;;;;5023794;28;20053;-63
2023/02/04 06:48:39;;;;;;;0.80;0.50;;;19.50;52.10;;;;;;5019370;28;20045;-64
2023/02/04 06:51:05;;;;;;;0.63;0.40;;;19.50;51.60;;;;;;5028854;28;20061;-64
2023/02/04 06:53:30;;;;;;;1.00;0.60;;;19.50;51.60;;;;;;5016972;28;20028;-64
2023/02/04 06:55:56;;;;;;;1.33;0.60;;;19.50;51.60;;;;;;5019961;28;20105;-64
2023/02/04 06:58:21;;;;;;;0.80;0.38;;;19.50;51.60;;;;;;5022155;28;20121;-66
2023/02/04 07:00:47;;;;;;;1.02;0.40;;;19.50;51.60;;;;;;5021937;28;20040;-65
2023/02/04 07:03:12;;;;;;;1.70;0.60;;;19.50;51.60;;;;;;5022610;28;20030;-65
2023/02/04 07:05:38;;;;;;;1.10;0.50;;;19.50;51.60;;;;;;5020426;28;20388;-64
2023/02/04 07:08:04;;;;;;;0.88;0.50;;;19.50;51.70;;;;;;5019778;28;20504;-64
2023/02/04 07:10:31;;;;;;;1.08;0.50;;;19.50;51.70;;;;;;5021013;28;20030;-64
2023/02/04 07:12:56;;;;;;;1.15;0.70;;;19.50;51.70;;;;;;5020274;28;20269;-64
2023/02/04 07:15:22;;;;;;;1.10;0.50;;;19.50;51.80;;;;;;5017728;28;20017;-65
2023/02/04 07:17:48;;;;;;;0.80;0.50;;;19.40;51.80;;;;;;5022464;28;20088;-64
2023/02/04 07:20:13;;;;;;;1.05;0.60;;;19.40;51.80;;;;;;5021087;28;20029;-65
2023/02/04 07:22:40;;;;;;;0.98;0.60;;;19.50;51.80;;;;;;5022332;28;20040;-64
2023/02/04 07:25:05;;;;;;;1.02;0.50;;;19.50;51.90;;;;;;5020304;28;20029;-64
2023/02/04 07:27:31;;;;;;;1.00;0.60;;;19.50;51.90;;;;;;5017110;28;20034;-65
2023/02/04 07:29:57;;;;;;;0.98;0.50;;;19.50;51.80;;;;;;5019217;28;20064;-65
2023/02/04 07:32:22;;;;;;;2.30;0.70;;;19.40;51.90;;;;;;5020615;28;20030;-65
2023/02/04 07:34:48;;;;;;;1.15;0.60;;;19.50;51.90;;;;;;5015472;28;20026;-64
2023/02/04 07:37:14;;;;;;;1.63;0.80;;;19.50;51.90;;;;;;5016389;28;20433;-65
2023/02/04 07:39:39;;;;;;;1.83;0.70;;;19.40;52.00;;;;;;5020978;28;20057;-64
2023/02/04 07:42:05;;;;;;;2.28;0.80;;;19.50;53.00;;;;;;5019691;28;20075;-65
2023/02/04 07:44:31;;;;;;;1.92;0.77;;;19.50;52.70;;;;;;5019971;28;20061;-64
2023/02/04 07:46:56;;;;;;;0.98;0.60;;;19.50;52.70;;;;;;5021212;28;20030;-64
2023/02/04 07:49:22;;;;;;;1.33;0.70;;;19.50;52.60;;;;;;5019777;28;20018;-65
2023/02/04 07:51:47;;;;;;;1.42;0.70;;;19.50;52.60;;;;;;5020657;28;20065;-64
2023/02/04 07:54:13;;;;;;;1.58;0.50;;;19.50;52.60;;;;;;5021021;28;20022;-65
2023/02/04 07:56:39;;;;;;;1.48;0.65;;;19.50;52.50;;;;;;5020607;28;20026;-65
2023/02/04 07:59:04;;;;;;;0.98;0.65;;;19.50;52.50;;;;;;5018592;28;20025;-64
2023/02/04 08:01:30;;;;;;;1.17;0.60;;;19.50;52.50;;;;;;5017971;28;20026;-66
2023/02/04 08:03:55;;;;;;;1.30;0.60;;;19.50;52.50;;;;;;5022177;28;20025;-64
2023/02/04 08:06:21;;;;;;;1.45;0.80;;;19.50;52.40;;;;;;5019175;28;20087;-64
2023/02/04 08:08:47;;;;;;;1.30;0.70;;;19.50;52.50;;;;;;5020481;28;20091;-64
2023/02/04 08:11:13;;;;;;;0.55;0.40;;;19.50;52.40;;;;;;5020968;28;20033;-64
2023/02/04 08:13:38;;;;;;;1.45;0.80;;;19.50;52.40;;;;;;5018951;28;20034;-64
2023/02/04 08:16:04;;;;;;;1.50;0.60;;;19.50;52.40;;;;;;5017070;28;20475;-64
2023/02/04 08:18:30;;;;;;;2.72;0.88;;;19.40;52.40;;;;;;5019798;28;20020;-65
2023/02/04 08:20:56;;;;;;;1.35;0.70;;;19.50;52.40;;;;;;5016741;28;20033;-64
2023/02/04 08:23:22;;;;;;;1.30;0.70;;;19.40;52.40;;;;;;5017801;28;20029;-64
2023/02/04 08:25:47;;;;;;;1.67;0.70;;;19.50;52.40;;;;;;5017411;28;20540;-64
2023/02/04 08:28:13;;;;;;;1.17;0.70;;;19.40;52.30;;;;;;5020766;28;20029;-65
2023/02/04 08:30:38;;;;;;;1.48;0.70;;;19.40;52.30;;;;;;5036397;28;20084;-65
2023/02/04 08:33:04;;;;;;;1.40;0.70;;;19.50;52.40;;;;;;5018007;28;20034;-64
2023/02/04 08:35:30;;;;;;;1.38;0.63;;;19.50;52.40;;;;;;5019552;28;20030;-64
2023/02/04 08:37:55;;;;;;;1.75;0.63;;;19.50;52.30;;;;;;5021989;28;20033;-65
2023/02/04 08:40:21;;;;;;;1.35;0.70;;;19.50;52.30;;;;;;5020912;28;20037;-64
2023/02/04 08:42:47;;;;;;;1.00;0.60;;;19.50;52.30;;;;;;5021469;28;20489;-64
2023/02/04 08:45:13;;;;;;;1.30;0.50;;;19.50;52.30;;;;;;5035140;28;20037;-64
2023/02/04 08:47:38;;;;;;;0.90;0.50;;;19.50;52.40;;;;;;5018271;28;20042;-65
2023/02/04 08:50:04;;;;;;;1.20;0.70;;;19.50;52.40;;;;;;5015689;28;20072;-64
2023/02/04 08:52:30;;;;;;;1.63;0.70;;;19.50;52.40;;;;;;5021305;28;20029;-64
2023/02/04 08:54:55;;;;;;;0.88;0.50;;;19.40;52.40;;;;;;5018202;28;20481;-64
2023/02/04 08:57:21;;;;;;;1.13;0.60;;;19.50;52.40;;;;;;5017771;28;20040;-66
2023/02/04 08:59:46;;;;;;;1.42;0.73;;;19.50;52.40;;;;;;5019706;28;20029;-64
2023/02/04 09:02:12;;;;;;;1.17;0.70;;;19.50;52.40;;;;;;5019417;28;20041;-65
2023/02/04 09:04:37;;;;;;;1.45;0.70;;;19.50;52.40;;;;;;5019793;28;20017;-66
2023/02/04 09:07:03;;;;;;;0.60;0.40;;;19.50;52.40;;;;;;5019732;28;20492;-65
2023/02/04 09:09:29;;;;;;;1.45;0.70;;;19.50;52.40;;;;;;5019931;28;20504;-66
2023/02/04 09:11:54;;;;;;;1.00;0.60;;;19.50;52.40;;;;;;5032804;28;20036;-66
2023/02/04 09:14:20;;;;;;;2.92;0.70;;;19.50;52.40;;;;;;5016168;28;20025;-67
2023/02/04 09:16:47;;;;;;;0.75;0.55;;;19.50;52.40;;;;;;5018018;28;20072;-66
2023/02/04 09:19:15;;;;;;;1.15;0.68;;;19.50;52.40;;;;;;5018900;28;20022;-66
2023/02/04 09:21:41;;;;;;;0.98;0.60;;;19.50;52.40;;;;;;5017340;28;20022;-67
2023/02/04 09:24:06;;;;;;;1.25;0.75;;;19.50;52.40;;;;;;5019164;28;20437;-66
2023/02/04 09:26:32;;;;;;;0.95;0.60;;;19.50;52.40;;;;;;5017971;28;20033;-67
2023/02/04 09:28:58;;;;;;;1.92;0.80;;;19.50;52.40;;;;;;5020197;28;20527;-66
2023/02/04 09:31:23;;;;;;;1.45;0.60;;;19.40;52.40;;;;;;5020688;28;20381;-67
2023/02/04 09:33:49;;;;;;;1.35;0.70;;;19.40;52.40;;;;;;5025304;28;20053;-66
2023/02/04 09:36:15;;;;;;;2.35;0.70;;;19.50;52.40;;;;;;5023949;28;20025;-66
2023/02/04 09:38:40;;;;;;;1.42;0.65;;;19.50;52.40;;;;;;5024071;28;20098;-67
2023/02/04 09:41:09;;;;;;;1.45;0.70;;;19.50;52.50;;;;;;5024037;28;20065;-66
2023/02/04 09:43:39;;;;;;;0.98;0.63;;;19.50;52.40;;;;;;5024758;28;20548;-66
2023/02/04 09:46:06;;;;;;;1.73;0.80;;;19.40;52.30;;;;;;5028252;28;20026;-67
2023/02/04 09:48:32;;;;;;;1.60;0.70;;;19.50;52.40;;;;;;5025108;28;20049;-67
2023/02/04 09:51:06;;;;;;;1.67;0.80;;;19.50;52.40;;;;;;5025749;28;20396;-66
2023/02/04 09:53:33;;;;;;;1.88;1.05;;;19.50;52.30;;;;;;5023448;28;20469;-67
2023/02/04 09:55:59;;;;;;;1.73;0.70;;;19.50;52.30;;;;;;5034240;28;20021;-68
2023/02/04 09:58:31;;;;;;;1.40;0.65;;;19.50;52.40;;;;;;5024615;28;20028;-66
2023/02/04 10:01:29;;;;;;;3.45;0.80;;;19.40;52.30;;;;;;5022976;28;20121;-66
2023/02/04 10:03:59;;;;;;;1.30;0.70;;;19.40;52.30;;;;;;5012809;28;20037;-67
2023/02/04 10:06:25;;;;;;;1.67;0.70;;;19.50;52.30;;;;;;5024937;28;20026;-66
2023/02/04 10:08:51;;;;;;;1.33;0.65;;;19.50;52.30;;;;;;5026569;28;20144;-66
2023/02/04 10:11:19;;;;;;;2.28;0.80;;;19.50;52.30;;;;;;5024806;28;20103;-66
2023/02/04 10:13:50;;;;;;;2.15;0.82;;;19.50;52.30;;;;;;5025709;28;20142;-66
2023/02/04 10:16:31;;;;;;;1.60;0.70;;;19.50;52.30;;;;;;5024567;28;20069;-66
2023/02/04 10:19:06;;;;;;;1.58;0.70;;;19.40;52.30;;;;;;5027539;28;20481;-66
2023/02/04 10:21:36;;;;;;;1.77;0.80;;;19.40;52.30;;;;;;5025310;28;20396;-67
2023/02/04 10:24:09;;;;;;;1.45;0.70;;;19.40;52.30;;;;;;5026375;28;20022;-66
2023/02/04 10:26:34;;;;;;;1.15;0.70;;;19.50;52.40;;;;;;5023041;28;20188;-66
2023/02/04 10:29:02;;;;;;;1.65;0.80;;;19.50;52.40;;;;;;5025771;28;20116;-66
2023/02/04 10:31:39;;;;;;;1.65;0.73;;;19.50;52.40;;;;;;5021723;28;20084;-66
2023/02/04 10:34:19;;;;;;;1.85;0.70;;;19.40;52.30;;;;;;5024316;28;20439;-66
2023/02/04 10:36:48;;;;;;;1.52;0.80;;;19.40;52.40;;;;;;5023862;28;20030;-66
2023/02/04 10:39:20;;;;;;;2.30;0.80;;;19.40;52.40;;;;;;5025861;28;20072;-66
2023/02/04 10:41:47;;;;;;;1.40;0.60;;;19.40;52.30;;;;;;5021177;28;20041;-66
2023/02/04 10:44:15;;;;;;;1.27;0.70;;;19.50;52.40;;;;;;5021432;28;20136;-66
2023/02/04 10:46:40;;;;;;;2.65;0.90;;;19.50;52.90;;;;;;5019690;28;20036;-67
2023/02/04 10:49:21;;;;;;;1.45;0.63;;;19.40;52.40;;;;;;5019675;28;20429;-66
2023/02/04 10:51:49;;;;;;;1.83;0.90;;;19.40;52.30;;;;;;5022321;28;20049;-66
2023/02/04 10:54:31;;;;;;;1.80;0.80;;;19.40;52.30;;;;;;5022855;28;20036;-66
2023/02/04 10:57:22;;;;;;;1.25;0.70;;;19.40;52.30;;;;;;5020321;28;20469;-66
2023/02/04 10:59:58;;;;;;;1.63;0.70;;;19.50;52.40;;;;;;5020561;28;20557;-66
2023/02/04 11:02:41;;;;;;;2.38;1.15;;;19.50;52.40;;;;;;5022694;28;20018;-67
2023/02/04 11:05:34;;;;;;;2.67;1.13;;;19.50;52.30;;;;;;5019664;28;20440;-66
2023/02/04 11:08:01;;;;;;;1.88;0.90;;;19.50;52.30;;;;;;5017421;28;20044;-66
2023/02/04 11:10:32;;;;;;;1.75;0.82;;;19.50;52.30;;;;;;5021227;28;20026;-66
2023/02/04 11:13:01;;;;;;;1.42;0.70;;;19.50;52.30;;;;;;5020120;28;20026;-66
2023/02/04 11:15:43;;;;;;;2.35;0.80;;;19.40;52.30;;;;;;5021935;28;20097;-66
2023/02/04 11:18:20;;;;;;;1.70;0.80;;;19.50;52.30;;;;;;5019176;28;20120;-66
2023/02/04 11:20:52;;;;;;;2.08;1.00;;;19.50;52.30;;;;;;5020871;28;20521;-66
2023/02/04 11:23:27;;;;;;;1.60;0.70;;;19.50;52.40;;;;;;5023018;28;20373;-66
2023/02/04 11:26:20;;;;;;;2.53;1.00;;;19.50;52.30;;;;;;5022183;28;20029;-66
2023/02/04 11:28:57;;;;;;;2.13;0.88;;;19.50;52.40;;;;;;5019763;28;20021;-66
2023/02/04 11:31:23;;;;;;;1.60;0.80;;;19.50;52.40;;;;;;5024017;28;20041;-65
2023/02/04 11:34:01;;;;;;;2.17;0.90;;;19.50;52.40;;;;;;5021800;28;20461;-66
2023/02/04 11:36:27;;;;;;;1.83;0.90;;;19.50;52.50;;;;;;5023050;28;20048;-65
2023/02/04 11:38:52;;;;;;;1.92;0.90;;;19.50;52.40;;;;;;5017625;28;20549;-65
2023/02/04 11:41:28;;;;;;;1.45;0.70;;;19.50;52.50;;;;;;5020461;28;20113;-67
2023/02/04 11:43:54;;;;;;;1.75;0.93;;;19.50;52.50;;;;;;5018789;28;20041;-66
2023/02/04 11:46:21;;;;;;;2.03;0.90;;;19.50;52.50;;;;;;5018274;28;20056;-66
2023/02/04 11:48:52;;;;;;;1.73;0.73;;;19.50;52.50;;;;;;5022187;28;20436;-66
2023/02/04 11:51:23;;;;;;;1.77;0.90;;;19.50;52.50;;;;;;5020348;28;20057;-67
2023/02/04 11:53:52;;;;;;;1.73;0.90;;;19.50;52.50;;;;;;5018221;28;20412;-67
2023/02/04 11:56:19;;;;;;;1.83;0.80;;;19.50;53.10;;;;;;5018736;28;20476;-66
2023/02/04 11:58:47;;;;;;;1.92;0.77;;;19.50;52.60;;;;;;5020575;28;20149;-67
2023/02/04 12:01:20;;;;;;;2.92;0.80;;;19.50;52.60;;;;;;5020617;28;20032;-66
2023/02/04 12:03:48;;;;;;;1.98;1.10;;;19.50;52.60;;;;;;5021188;28;20334;-68
2023/02/04 12:06:39;;;;;;;1.88;0.90;;;19.50;52.70;;;;;;5021020;28;20092;-67
2023/02/04 12:09:22;;;;;;;1.17;0.70;;;19.50;52.70;;;;;;5020188;28;20043;-65
2023/02/04 12:12:02;;;;;;;1.40;0.70;;;19.50;52.70;;;;;;5020931;28;20438;-66
2023/02/04 12:14:32;;;;;;;1.67;0.77;;;19.50;52.70;;;;;;5020670;28;20026;-66
2023/02/04 12:16:57;;;;;;;1.58;0.70;;;19.50;52.70;;;;;;5019297;28;20033;-66
2023/02/04 12:19:23;;;;;;;2.17;0.88;;;19.50;53.30;;;;;;5017675;28;20045;-66
2023/02/04 12:21:49;;;;;;;1.67;0.80;;;19.50;52.80;;;;;;5019241;28;20057;-66
2023/02/04 12:24:14;;;;;;;1.85;0.90;;;19.50;52.80;;;;;;5020157;28;20080;-66
2023/02/04 12:26:41;;;;;;;1.27;0.77;;;19.50;52.80;;;;;;5019131;28;20026;-66
2023/02/04 12:29:07;;;;;;;1.65;0.90;;;19.50;52.80;;;;;;5019736;28;20026;-66
2023/02/04 12:31:33;;;;;;;1.40;0.80;;;19.50;52.80;;;;;;5018836;28;20021;-66
2023/02/04 12:33:59;;;;;;;1.80;0.80;;;19.50;52.80;;;;;;5019749;28;20026;-67
2023/02/04 12:36:26;;;;;;;1.88;0.90;;;19.50;52.80;;;;;;5027672;28;20026;-66
2023/02/04 12:38:52;;;;;;;2.17;0.88;;;19.50;52.80;;;;;;5019685;28;20052;-66
2023/02/04 12:41:18;;;;;;;2.33;0.70;;;19.50;52.70;;;;;;5017428;28;20517;-68
2023/02/04 12:43:45;;;;;;;1.17;0.65;;;19.50;52.70;;;;;;5016296;28;20426;-68
2023/02/04 12:46:10;;;;;;;1.65;0.75;;;19.50;52.70;;;;;;5017745;28;20033;-66
2023/02/04 12:48:39;;;;;;;1.27;0.60;;;19.50;52.70;;;;;;5019352;28;20092;-66